sensor_id;sensor_type;location;lat;lon;timestamp;temperature;humidity
1175;DHT22;576;48.418;10.074;2023-06-26T00:01:28;29.30;57.10
1175;DHT22;576;48.418;10.074;2023-06-26T00:04:00;29.30;57.10
1175;DHT22;576;48.418;10.074;2023-06-26T00:06:28;29.30;57.20
1175;DHT22;576;48.418;10.074;2023-06-26T00:08:57;29.30;57.20
1175;DHT22;576;48.418;10.074;2023-06-26T00:11:25;29.30;57.20
1175;DHT22;576;48.418;10.074;2023-06-26T00:13:54;29.30;57.20
1175;DHT22;576;48.418;10.074;2023-06-26T00:16:22;29.30;57.20
1175;DHT22;576;48.418;10.074;2023-06-26T00:18:50;29.30;57.20
1175;DHT22;576;48.418;10.074;2023-06-26T00:21:20;29.30;57.20
1175;DHT22;576;48.418;10.074;2023-06-26T00:23:48;29.30;57.20
1175;DHT22;576;48.418;10.074;2023-06-26T00:26:16;29.30;57.20
1175;DHT22;576;48.418;10.074;2023-06-26T00:28:44;29.30;57.20
1175;DHT22;576;48.418;10.074;2023-06-26T00:31:13;29.20;57.20
1175;DHT22;576;48.418;10.074;2023-06-26T00:33:41;29.20;57.20
1175;DHT22;576;48.418;10.074;2023-06-26T00:36:09;29.20;57.20
1175;DHT22;576;48.418;10.074;2023-06-26T00:38:39;29.20;57.20
1175;DHT22;576;48.418;10.074;2023-06-26T00:41:07;29.20;57.20
1175;DHT22;576;48.418;10.074;2023-06-26T00:43:40;29.20;57.20
1175;DHT22;576;48.418;10.074;2023-06-26T00:46:12;29.20;57.10
1175;DHT22;576;48.418;10.074;2023-06-26T00:48:42;29.20;57.20
1175;DHT22;576;48.418;10.074;2023-06-26T00:51:12;29.20;57.20
1175;DHT22;576;48.418;10.074;2023-06-26T00:53:42;29.20;57.20
1175;DHT22;576;48.418;10.074;2023-06-26T00:56:11;29.20;57.20
1175;DHT22;576;48.418;10.074;2023-06-26T00:58:39;29.20;57.20
1175;DHT22;576;48.418;10.074;2023-06-26T01:01:08;29.10;57.20
1175;DHT22;576;48.418;10.074;2023-06-26T01:03:43;29.10;57.10
1175;DHT22;576;48.418;10.074;2023-06-26T01:06:13;29.10;57.10
1175;DHT22;576;48.418;10.074;2023-06-26T01:08:44;29.10;57.20
1175;DHT22;576;48.418;10.074;2023-06-26T01:11:13;29.10;57.20
1175;DHT22;576;48.418;10.074;2023-06-26T01:13:42;29.10;57.20
1175;DHT22;576;48.418;10.074;2023-06-26T01:16:12;29.10;57.20
1175;DHT22;576;48.418;10.074;2023-06-26T01:18:41;29.10;57.10
1175;DHT22;576;48.418;10.074;2023-06-26T01:21:13;29.10;57.10
1175;DHT22;576;48.418;10.074;2023-06-26T01:23:58;29.10;57.20
1175;DHT22;576;48.418;10.074;2023-06-26T01:26:33;29.10;57.10
1175;DHT22;576;48.418;10.074;2023-06-26T01:29:04;29.10;57.10
1175;DHT22;576;48.418;10.074;2023-06-26T01:31:34;29.10;57.30
1175;DHT22;576;48.418;10.074;2023-06-26T01:34:03;29.00;57.30
1175;DHT22;576;48.418;10.074;2023-06-26T01:36:32;29.00;57.30
1175;DHT22;576;48.418;10.074;2023-06-26T01:39:00;29.00;57.30
1175;DHT22;576;48.418;10.074;2023-06-26T01:41:28;29.00;57.30
1175;DHT22;576;48.418;10.074;2023-06-26T01:44:11;29.00;57.30
1175;DHT22;576;48.418;10.074;2023-06-26T01:46:47;29.00;57.30
1175;DHT22;576;48.418;10.074;2023-06-26T01:49:21;29.00;57.40
1175;DHT22;576;48.418;10.074;2023-06-26T01:51:57;29.00;57.40
1175;DHT22;576;48.418;10.074;2023-06-26T01:54:30;29.00;57.40
1175;DHT22;576;48.418;10.074;2023-06-26T01:56:59;28.90;57.40
1175;DHT22;576;48.418;10.074;2023-06-26T01:59:32;28.90;57.50
1175;DHT22;576;48.418;10.074;2023-06-26T02:02:01;28.90;57.30
1175;DHT22;576;48.418;10.074;2023-06-26T02:04:29;28.90;57.40
1175;DHT22;576;48.418;10.074;2023-06-26T02:06:57;28.90;57.40
1175;DHT22;576;48.418;10.074;2023-06-26T02:09:28;28.90;57.40
1175;DHT22;576;48.418;10.074;2023-06-26T02:11:57;28.90;57.30
1175;DHT22;576;48.418;10.074;2023-06-26T02:14:25;28.90;57.40
1175;DHT22;576;48.418;10.074;2023-06-26T02:16:55;28.90;57.40
1175;DHT22;576;48.418;10.074;2023-06-26T02:19:25;28.90;57.50
1175;DHT22;576;48.418;10.074;2023-06-26T02:21:54;28.90;57.40
1175;DHT22;576;48.418;10.074;2023-06-26T02:24:24;28.90;57.50
1175;DHT22;576;48.418;10.074;2023-06-26T02:26:54;28.90;57.40
1175;DHT22;576;48.418;10.074;2023-06-26T02:29:22;28.80;57.50
1175;DHT22;576;48.418;10.074;2023-06-26T02:31:50;28.80;57.50
1175;DHT22;576;48.418;10.074;2023-06-26T02:34:20;28.80;57.50
1175;DHT22;576;48.418;10.074;2023-06-26T02:36:48;28.80;57.60
1175;DHT22;576;48.418;10.074;2023-06-26T02:39:16;28.80;57.50
1175;DHT22;576;48.418;10.074;2023-06-26T02:41:45;28.80;57.50
1175;DHT22;576;48.418;10.074;2023-06-26T02:44:14;28.80;57.60
1175;DHT22;576;48.418;10.074;2023-06-26T02:46:42;28.80;57.50
1175;DHT22;576;48.418;10.074;2023-06-26T02:49:11;28.80;57.50
1175;DHT22;576;48.418;10.074;2023-06-26T02:51:40;28.70;57.50
1175;DHT22;576;48.418;10.074;2023-06-26T02:54:15;28.70;57.60
1175;DHT22;576;48.418;10.074;2023-06-26T02:56:45;28.70;57.60
1175;DHT22;576;48.418;10.074;2023-06-26T02:59:19;28.70;57.60
1175;DHT22;576;48.418;10.074;2023-06-26T03:01:47;28.70;57.60
1175;DHT22;576;48.418;10.074;2023-06-26T03:04:16;28.70;57.50
1175;DHT22;576;48.418;10.074;2023-06-26T03:06:46;28.70;57.60
1175;DHT22;576;48.418;10.074;2023-06-26T03:09:15;28.70;57.60
1175;DHT22;576;48.418;10.074;2023-06-26T03:11:44;28.70;57.60
1175;DHT22;576;48.418;10.074;2023-06-26T03:14:12;28.70;57.60
1175;DHT22;576;48.418;10.074;2023-06-26T03:16:40;28.70;57.60
1175;DHT22;576;48.418;10.074;2023-06-26T03:19:09;28.70;57.50
1175;DHT22;576;48.418;10.074;2023-06-26T03:21:58;28.70;57.40
1175;DHT22;576;48.418;10.074;2023-06-26T03:24:29;28.60;57.60
1175;DHT22;576;48.418;10.074;2023-06-26T03:26:57;28.60;57.60
1175;DHT22;576;48.418;10.074;2023-06-26T03:29:26;28.60;57.60
1175;DHT22;576;48.418;10.074;2023-06-26T03:31:55;28.60;57.60
1175;DHT22;576;48.418;10.074;2023-06-26T03:34:24;28.60;57.60
1175;DHT22;576;48.418;10.074;2023-06-26T03:36:53;28.60;57.60
1175;DHT22;576;48.418;10.074;2023-06-26T03:39:23;28.60;57.60
1175;DHT22;576;48.418;10.074;2023-06-26T03:41:52;28.60;57.70
1175;DHT22;576;48.418;10.074;2023-06-26T03:44:22;28.60;57.60
1175;DHT22;576;48.418;10.074;2023-06-26T03:46:50;28.60;57.70
1175;DHT22;576;48.418;10.074;2023-06-26T03:49:19;28.50;57.70
1175;DHT22;576;48.418;10.074;2023-06-26T03:51:47;28.60;57.60
1175;DHT22;576;48.418;10.074;2023-06-26T03:54:15;28.50;57.60
1175;DHT22;576;48.418;10.074;2023-06-26T03:56:44;28.50;57.60
1175;DHT22;576;48.418;10.074;2023-06-26T03:59:13;28.50;57.70
1175;DHT22;576;48.418;10.074;2023-06-26T04:01:41;28.50;57.70
1175;DHT22;576;48.418;10.074;2023-06-26T04:04:09;28.50;57.70
1175;DHT22;576;48.418;10.074;2023-06-26T04:06:37;28.50;57.60
1175;DHT22;576;48.418;10.074;2023-06-26T04:09:06;28.50;57.60
1175;DHT22;576;48.418;10.074;2023-06-26T04:11:34;28.50;57.60
1175;DHT22;576;48.418;10.074;2023-06-26T04:14:04;28.50;57.70
1175;DHT22;576;48.418;10.074;2023-06-26T04:16:32;28.50;57.60
1175;DHT22;576;48.418;10.074;2023-06-26T04:19:00;28.50;57.50
1175;DHT22;576;48.418;10.074;2023-06-26T04:21:29;28.60;57.60
1175;DHT22;576;48.418;10.074;2023-06-26T04:23:57;28.60;57.60
1175;DHT22;576;48.418;10.074;2023-06-26T04:26:25;28.60;57.50
1175;DHT22;576;48.418;10.074;2023-06-26T04:28:54;28.60;57.50
1175;DHT22;576;48.418;10.074;2023-06-26T04:31:24;28.60;57.50
1175;DHT22;576;48.418;10.074;2023-06-26T04:33:52;28.60;57.60
1175;DHT22;576;48.418;10.074;2023-06-26T04:36:22;28.60;57.60
1175;DHT22;576;48.418;10.074;2023-06-26T04:38:50;28.60;57.50
1175;DHT22;576;48.418;10.074;2023-06-26T04:41:18;28.50;57.50
1175;DHT22;576;48.418;10.074;2023-06-26T04:43:46;28.50;57.60
1175;DHT22;576;48.418;10.074;2023-06-26T04:46:14;28.50;57.60
1175;DHT22;576;48.418;10.074;2023-06-26T04:48:44;28.50;57.60
1175;DHT22;576;48.418;10.074;2023-06-26T04:51:12;28.50;57.50
1175;DHT22;576;48.418;10.074;2023-06-26T04:53:40;28.50;57.50
1175;DHT22;576;48.418;10.074;2023-06-26T04:56:08;28.50;57.50
1175;DHT22;576;48.418;10.074;2023-06-26T04:58:38;28.50;57.60
1175;DHT22;576;48.418;10.074;2023-06-26T05:01:06;28.50;57.60
1175;DHT22;576;48.418;10.074;2023-06-26T05:03:35;28.50;57.60
1175;DHT22;576;48.418;10.074;2023-06-26T05:06:05;28.50;57.60
1175;DHT22;576;48.418;10.074;2023-06-26T05:08:35;28.50;57.70
1175;DHT22;576;48.418;10.074;2023-06-26T05:11:04;28.50;57.70
1175;DHT22;576;48.418;10.074;2023-06-26T05:13:32;28.50;57.70
1175;DHT22;576;48.418;10.074;2023-06-26T05:16:00;28.50;57.70
1175;DHT22;576;48.418;10.074;2023-06-26T05:18:28;28.50;57.70
1175;DHT22;576;48.418;10.074;2023-06-26T05:20:57;28.50;57.70
1175;DHT22;576;48.418;10.074;2023-06-26T05:23:27;28.50;57.80
1175;DHT22;576;48.418;10.074;2023-06-26T05:25:58;28.50;57.80
1175;DHT22;576;48.418;10.074;2023-06-26T05:28:27;28.50;57.80
1175;DHT22;576;48.418;10.074;2023-06-26T05:30:58;28.50;57.80
1175;DHT22;576;48.418;10.074;2023-06-26T05:33:27;28.50;57.80
1175;DHT22;576;48.418;10.074;2023-06-26T05:35:55;28.50;57.90
1175;DHT22;576;48.418;10.074;2023-06-26T05:38:27;28.50;57.90
1175;DHT22;576;48.418;10.074;2023-06-26T05:40:56;28.60;57.90
1175;DHT22;576;48.418;10.074;2023-06-26T05:43:25;28.60;57.90
1175;DHT22;576;48.418;10.074;2023-06-26T05:45:56;28.60;57.90
1175;DHT22;576;48.418;10.074;2023-06-26T05:48:24;28.60;57.90
1175;DHT22;576;48.418;10.074;2023-06-26T05:50:53;28.60;58.00
1175;DHT22;576;48.418;10.074;2023-06-26T05:53:22;28.60;58.00
1175;DHT22;576;48.418;10.074;2023-06-26T05:55:52;28.60;58.00
1175;DHT22;576;48.418;10.074;2023-06-26T05:58:21;28.60;58.10
1175;DHT22;576;48.418;10.074;2023-06-26T06:00:51;28.60;58.00
1175;DHT22;576;48.418;10.074;2023-06-26T06:03:19;28.60;58.10
1175;DHT22;576;48.418;10.074;2023-06-26T06:05:48;28.60;58.00
1175;DHT22;576;48.418;10.074;2023-06-26T06:08:16;28.60;58.10
1175;DHT22;576;48.418;10.074;2023-06-26T06:10:44;28.60;58.10
1175;DHT22;576;48.418;10.074;2023-06-26T06:13:14;28.60;58.10
1175;DHT22;576;48.418;10.074;2023-06-26T06:15:42;28.60;58.10
1175;DHT22;576;48.418;10.074;2023-06-26T06:18:10;28.60;58.20
1175;DHT22;576;48.418;10.074;2023-06-26T06:20:38;28.60;58.20
1175;DHT22;576;48.418;10.074;2023-06-26T06:23:07;28.60;58.20
1175;DHT22;576;48.418;10.074;2023-06-26T06:25:35;28.60;58.20
1175;DHT22;576;48.418;10.074;2023-06-26T06:28:04;28.60;58.20
1175;DHT22;576;48.418;10.074;2023-06-26T06:30:34;28.60;58.30
1175;DHT22;576;48.418;10.074;2023-06-26T06:33:12;28.60;58.20
1175;DHT22;576;48.418;10.074;2023-06-26T06:35:40;28.60;58.20
1175;DHT22;576;48.418;10.074;2023-06-26T06:38:08;28.60;58.20
1175;DHT22;576;48.418;10.074;2023-06-26T06:40:36;28.60;58.30
1175;DHT22;576;48.418;10.074;2023-06-26T06:43:05;28.70;58.20
1175;DHT22;576;48.418;10.074;2023-06-26T06:45:34;28.60;58.40
1175;DHT22;576;48.418;10.074;2023-06-26T06:48:04;28.70;58.60
1175;DHT22;576;48.418;10.074;2023-06-26T06:50:33;28.70;58.80
1175;DHT22;576;48.418;10.074;2023-06-26T06:53:01;28.70;58.90
1175;DHT22;576;48.418;10.074;2023-06-26T06:55:29;28.70;58.90
1175;DHT22;576;48.418;10.074;2023-06-26T06:57:57;28.70;59.00
1175;DHT22;576;48.418;10.074;2023-06-26T07:00:26;28.80;59.00
1175;DHT22;576;48.418;10.074;2023-06-26T07:02:55;28.80;59.00
1175;DHT22;576;48.418;10.074;2023-06-26T07:05:24;28.80;59.00
1175;DHT22;576;48.418;10.074;2023-06-26T07:07:52;28.90;59.00
1175;DHT22;576;48.418;10.074;2023-06-26T07:10:21;28.90;59.00
1175;DHT22;576;48.418;10.074;2023-06-26T07:12:49;28.90;59.00
1175;DHT22;576;48.418;10.074;2023-06-26T07:15:17;28.90;59.00
1175;DHT22;576;48.418;10.074;2023-06-26T07:17:45;28.90;59.10
1175;DHT22;576;48.418;10.074;2023-06-26T07:20:15;28.90;59.00
1175;DHT22;576;48.418;10.074;2023-06-26T07:22:43;29.00;59.00
1175;DHT22;576;48.418;10.074;2023-06-26T07:25:12;29.00;59.00
1175;DHT22;576;48.418;10.074;2023-06-26T07:27:41;29.00;59.00
1175;DHT22;576;48.418;10.074;2023-06-26T07:30:10;29.00;59.10
1175;DHT22;576;48.418;10.074;2023-06-26T07:32:39;29.00;59.00
1175;DHT22;576;48.418;10.074;2023-06-26T07:35:11;29.10;59.00
1175;DHT22;576;48.418;10.074;2023-06-26T07:37:41;29.10;59.00
1175;DHT22;576;48.418;10.074;2023-06-26T07:40:10;29.10;59.00
1175;DHT22;576;48.418;10.074;2023-06-26T07:42:38;29.10;58.90
1175;DHT22;576;48.418;10.074;2023-06-26T07:45:09;29.20;58.90
1175;DHT22;576;48.418;10.074;2023-06-26T07:47:39;29.20;59.00
1175;DHT22;576;48.418;10.074;2023-06-26T07:50:08;29.20;59.00
1175;DHT22;576;48.418;10.074;2023-06-26T07:52:38;29.20;59.10
1175;DHT22;576;48.418;10.074;2023-06-26T07:55:08;29.20;59.10
1175;DHT22;576;48.418;10.074;2023-06-26T07:57:36;29.20;59.10
1175;DHT22;576;48.418;10.074;2023-06-26T08:00:06;29.20;59.00
1175;DHT22;576;48.418;10.074;2023-06-26T08:02:40;29.30;59.00
1175;DHT22;576;48.418;10.074;2023-06-26T08:05:08;29.30;59.10
1175;DHT22;576;48.418;10.074;2023-06-26T08:07:37;29.30;59.10
1175;DHT22;576;48.418;10.074;2023-06-26T08:10:08;29.20;58.90
1175;DHT22;576;48.418;10.074;2023-06-26T08:12:36;29.30;58.80
1175;DHT22;576;48.418;10.074;2023-06-26T08:15:07;29.30;58.80
1175;DHT22;576;48.418;10.074;2023-06-26T08:17:36;29.30;58.80
1175;DHT22;576;48.418;10.074;2023-06-26T08:20:06;29.30;58.70
1175;DHT22;576;48.418;10.074;2023-06-26T08:22:35;29.20;58.80
1175;DHT22;576;48.418;10.074;2023-06-26T08:25:04;29.20;58.80
1175;DHT22;576;48.418;10.074;2023-06-26T08:27:34;29.30;58.70
1175;DHT22;576;48.418;10.074;2023-06-26T08:30:03;29.30;58.70
1175;DHT22;576;48.418;10.074;2023-06-26T08:32:32;29.30;58.70
1175;DHT22;576;48.418;10.074;2023-06-26T08:35:00;29.30;58.70
1175;DHT22;576;48.418;10.074;2023-06-26T08:37:28;29.30;58.60
1175;DHT22;576;48.418;10.074;2023-06-26T08:40:00;29.30;58.80
1175;DHT22;576;48.418;10.074;2023-06-26T08:42:28;29.30;58.80
1175;DHT22;576;48.418;10.074;2023-06-26T08:44:58;29.30;58.80
1175;DHT22;576;48.418;10.074;2023-06-26T08:47:30;29.30;58.80
1175;DHT22;576;48.418;10.074;2023-06-26T08:50:07;29.30;58.80
1175;DHT22;576;48.418;10.074;2023-06-26T08:52:38;29.30;58.80
1175;DHT22;576;48.418;10.074;2023-06-26T08:55:10;29.30;58.70
1175;DHT22;576;48.418;10.074;2023-06-26T08:57:40;29.40;58.70
1175;DHT22;576;48.418;10.074;2023-06-26T09:00:13;29.30;58.70
1175;DHT22;576;48.418;10.074;2023-06-26T09:02:44;29.30;58.70
1175;DHT22;576;48.418;10.074;2023-06-26T09:05:13;29.40;58.70
1175;DHT22;576;48.418;10.074;2023-06-26T09:07:41;29.30;58.70
1175;DHT22;576;48.418;10.074;2023-06-26T09:10:10;29.40;58.70
1175;DHT22;576;48.418;10.074;2023-06-26T09:12:38;29.30;58.70
1175;DHT22;576;48.418;10.074;2023-06-26T09:15:07;29.40;58.80
1175;DHT22;576;48.418;10.074;2023-06-26T09:17:40;29.40;58.70
1175;DHT22;576;48.418;10.074;2023-06-26T09:20:09;29.40;58.60
1175;DHT22;576;48.418;10.074;2023-06-26T09:22:41;29.40;58.70
1175;DHT22;576;48.418;10.074;2023-06-26T09:25:10;29.40;58.70
1175;DHT22;576;48.418;10.074;2023-06-26T09:27:38;29.40;58.70
1175;DHT22;576;48.418;10.074;2023-06-26T09:30:07;29.40;58.70
1175;DHT22;576;48.418;10.074;2023-06-26T09:32:36;29.40;58.70
1175;DHT22;576;48.418;10.074;2023-06-26T09:35:06;29.40;58.60
1175;DHT22;576;48.418;10.074;2023-06-26T09:37:34;29.40;58.60
1175;DHT22;576;48.418;10.074;2023-06-26T09:40:03;29.50;58.60
1175;DHT22;576;48.418;10.074;2023-06-26T09:42:32;29.50;58.50
1175;DHT22;576;48.418;10.074;2023-06-26T09:45:01;29.50;58.40
1175;DHT22;576;48.418;10.074;2023-06-26T09:47:30;29.50;58.40
1175;DHT22;576;48.418;10.074;2023-06-26T09:49:59;29.50;58.30
1175;DHT22;576;48.418;10.074;2023-06-26T09:52:29;29.50;58.30
1175;DHT22;576;48.418;10.074;2023-06-26T09:55:07;29.50;58.30
1175;DHT22;576;48.418;10.074;2023-06-26T09:57:37;29.50;58.20
1175;DHT22;576;48.418;10.074;2023-06-26T10:00:06;29.50;58.10
1175;DHT22;576;48.418;10.074;2023-06-26T10:02:40;29.60;58.00
1175;DHT22;576;48.418;10.074;2023-06-26T10:05:09;29.60;57.90
1175;DHT22;576;48.418;10.074;2023-06-26T10:07:39;29.60;57.90
1175;DHT22;576;48.418;10.074;2023-06-26T10:10:08;29.50;57.80
1175;DHT22;576;48.418;10.074;2023-06-26T10:12:38;29.50;57.80
1175;DHT22;576;48.418;10.074;2023-06-26T10:15:07;29.50;57.90
1175;DHT22;576;48.418;10.074;2023-06-26T10:17:43;29.50;57.80
1175;DHT22;576;48.418;10.074;2023-06-26T10:20:14;29.60;57.80
1175;DHT22;576;48.418;10.074;2023-06-26T10:22:46;29.60;57.80
1175;DHT22;576;48.418;10.074;2023-06-26T10:25:18;29.60;57.80
1175;DHT22;576;48.418;10.074;2023-06-26T10:27:50;29.60;57.80
1175;DHT22;576;48.418;10.074;2023-06-26T10:30:23;29.60;57.70
1175;DHT22;576;48.418;10.074;2023-06-26T10:32:53;29.60;57.60
1175;DHT22;576;48.418;10.074;2023-06-26T10:35:22;29.60;57.80
1175;DHT22;576;48.418;10.074;2023-06-26T10:38:00;29.60;57.70
1175;DHT22;576;48.418;10.074;2023-06-26T10:40:40;29.60;57.70
1175;DHT22;576;48.418;10.074;2023-06-26T10:43:10;29.60;57.60
1175;DHT22;576;48.418;10.074;2023-06-26T10:45:43;29.60;57.70
1175;DHT22;576;48.418;10.074;2023-06-26T10:48:15;29.60;57.60
1175;DHT22;576;48.418;10.074;2023-06-26T10:50:47;29.60;57.60
1175;DHT22;576;48.418;10.074;2023-06-26T10:53:23;29.60;57.60
1175;DHT22;576;48.418;10.074;2023-06-26T10:55:59;29.60;57.60
1175;DHT22;576;48.418;10.074;2023-06-26T10:58:42;29.60;57.60
1175;DHT22;576;48.418;10.074;2023-06-26T11:01:21;29.60;57.60
1175;DHT22;576;48.418;10.074;2023-06-26T11:04:03;29.60;57.50
1175;DHT22;576;48.418;10.074;2023-06-26T11:06:32;29.60;57.60
1175;DHT22;576;48.418;10.074;2023-06-26T11:09:08;29.70;57.50
1175;DHT22;576;48.418;10.074;2023-06-26T11:11:58;29.70;57.50
1175;DHT22;576;48.418;10.074;2023-06-26T11:14:32;29.60;57.40
1175;DHT22;576;48.418;10.074;2023-06-26T11:17:05;29.60;57.40
1175;DHT22;576;48.418;10.074;2023-06-26T11:19:33;29.60;57.40
1175;DHT22;576;48.418;10.074;2023-06-26T11:22:05;29.60;57.50
1175;DHT22;576;48.418;10.074;2023-06-26T11:24:35;29.60;57.50
1175;DHT22;576;48.418;10.074;2023-06-26T11:27:04;29.50;57.60
1175;DHT22;576;48.418;10.074;2023-06-26T11:29:33;29.50;57.60
1175;DHT22;576;48.418;10.074;2023-06-26T11:32:03;29.50;57.60
1175;DHT22;576;48.418;10.074;2023-06-26T11:34:33;29.50;57.70
1175;DHT22;576;48.418;10.074;2023-06-26T11:37:02;29.50;57.70
1175;DHT22;576;48.418;10.074;2023-06-26T11:39:31;29.50;57.80
1175;DHT22;576;48.418;10.074;2023-06-26T11:42:01;29.50;57.80
1175;DHT22;576;48.418;10.074;2023-06-26T11:44:30;29.50;57.80
1175;DHT22;576;48.418;10.074;2023-06-26T11:46:58;29.50;57.80
1175;DHT22;576;48.418;10.074;2023-06-26T11:49:28;29.50;57.90
1175;DHT22;576;48.418;10.074;2023-06-26T11:51:57;29.50;57.90
1175;DHT22;576;48.418;10.074;2023-06-26T11:54:26;29.50;57.90
1175;DHT22;576;48.418;10.074;2023-06-26T11:56:55;29.50;57.90
1175;DHT22;576;48.418;10.074;2023-06-26T11:59:38;29.50;57.90
1175;DHT22;576;48.418;10.074;2023-06-26T12:02:07;29.50;57.90
1175;DHT22;576;48.418;10.074;2023-06-26T12:04:37;29.60;57.90
1175;DHT22;576;48.418;10.074;2023-06-26T12:07:08;29.60;57.80
1175;DHT22;576;48.418;10.074;2023-06-26T12:09:41;29.60;57.80
1175;DHT22;576;48.418;10.074;2023-06-26T12:12:11;29.70;57.80
1175;DHT22;576;48.418;10.074;2023-06-26T12:14:41;29.70;57.70
1175;DHT22;576;48.418;10.074;2023-06-26T12:17:11;29.70;57.70
1175;DHT22;576;48.418;10.074;2023-06-26T12:19:42;29.80;57.80
1175;DHT22;576;48.418;10.074;2023-06-26T12:22:11;29.90;57.60
1175;DHT22;576;48.418;10.074;2023-06-26T12:24:39;30.20;57.10
1175;DHT22;576;48.418;10.074;2023-06-26T12:27:10;30.40;56.50
1175;DHT22;576;48.418;10.074;2023-06-26T12:29:42;30.40;56.50
1175;DHT22;576;48.418;10.074;2023-06-26T12:32:13;30.40;56.30
1175;DHT22;576;48.418;10.074;2023-06-26T12:34:48;30.40;56.60
1175;DHT22;576;48.418;10.074;2023-06-26T12:37:17;30.30;56.90
1175;DHT22;576;48.418;10.074;2023-06-26T12:39:46;30.30;57.00
1175;DHT22;576;48.418;10.074;2023-06-26T12:42:15;30.30;57.10
1175;DHT22;576;48.418;10.074;2023-06-26T12:44:45;30.30;57.30
1175;DHT22;576;48.418;10.074;2023-06-26T12:47:14;30.20;57.50
1175;DHT22;576;48.418;10.074;2023-06-26T12:49:44;30.20;57.60
1175;DHT22;576;48.418;10.074;2023-06-26T12:52:14;30.20;57.80
1175;DHT22;576;48.418;10.074;2023-06-26T12:54:43;30.20;58.00
1175;DHT22;576;48.418;10.074;2023-06-26T12:57:13;30.20;58.10
1175;DHT22;576;48.418;10.074;2023-06-26T12:59:42;30.30;58.10
1175;DHT22;576;48.418;10.074;2023-06-26T13:02:12;30.40;58.10
1175;DHT22;576;48.418;10.074;2023-06-26T13:04:40;30.50;57.90
1175;DHT22;576;48.418;10.074;2023-06-26T13:07:11;30.60;57.80
1175;DHT22;576;48.418;10.074;2023-06-26T13:09:40;30.70;57.70
1175;DHT22;576;48.418;10.074;2023-06-26T13:12:09;30.70;57.50
1175;DHT22;576;48.418;10.074;2023-06-26T13:14:37;30.80;57.50
1175;DHT22;576;48.418;10.074;2023-06-26T13:17:06;30.90;57.50
1175;DHT22;576;48.418;10.074;2023-06-26T13:19:37;31.00;57.50
1175;DHT22;576;48.418;10.074;2023-06-26T13:22:06;31.00;57.50
1175;DHT22;576;48.418;10.074;2023-06-26T13:24:34;31.00;57.50
1175;DHT22;576;48.418;10.074;2023-06-26T13:27:02;31.10;57.50
1175;DHT22;576;48.418;10.074;2023-06-26T13:29:31;31.10;57.50
1175;DHT22;576;48.418;10.074;2023-06-26T13:32:00;31.10;57.50
1175;DHT22;576;48.418;10.074;2023-06-26T13:34:28;31.10;57.50
1175;DHT22;576;48.418;10.074;2023-06-26T13:36:58;31.10;57.70
1175;DHT22;576;48.418;10.074;2023-06-26T13:39:27;31.20;57.60
1175;DHT22;576;48.418;10.074;2023-06-26T13:41:55;31.20;57.60
1175;DHT22;576;48.418;10.074;2023-06-26T13:44:24;31.20;57.60
1175;DHT22;576;48.418;10.074;2023-06-26T13:47:05;31.20;57.80
1175;DHT22;576;48.418;10.074;2023-06-26T13:49:36;31.10;57.80
1175;DHT22;576;48.418;10.074;2023-06-26T13:52:06;31.10;58.00
1175;DHT22;576;48.418;10.074;2023-06-26T13:54:36;31.00;58.30
1175;DHT22;576;48.418;10.074;2023-06-26T13:57:06;31.00;58.50
1175;DHT22;576;48.418;10.074;2023-06-26T13:59:37;31.00;58.40
1175;DHT22;576;48.418;10.074;2023-06-26T14:02:06;31.00;58.50
1175;DHT22;576;48.418;10.074;2023-06-26T14:04:35;31.00;58.40
1175;DHT22;576;48.418;10.074;2023-06-26T14:07:05;30.90;58.60
1175;DHT22;576;48.418;10.074;2023-06-26T14:09:35;30.90;58.70
1175;DHT22;576;48.418;10.074;2023-06-26T14:12:04;30.90;58.90
1175;DHT22;576;48.418;10.074;2023-06-26T14:14:33;30.90;58.80
1175;DHT22;576;48.418;10.074;2023-06-26T14:17:02;31.00;58.70
1175;DHT22;576;48.418;10.074;2023-06-26T14:19:32;31.00;58.70
1175;DHT22;576;48.418;10.074;2023-06-26T14:22:00;31.00;58.60
1175;DHT22;576;48.418;10.074;2023-06-26T14:24:29;30.90;58.70
1175;DHT22;576;48.418;10.074;2023-06-26T14:26:58;30.90;58.90
1175;DHT22;576;48.418;10.074;2023-06-26T14:29:26;30.90;58.90
1175;DHT22;576;48.418;10.074;2023-06-26T14:31:54;30.90;58.90
1175;DHT22;576;48.418;10.074;2023-06-26T14:34:23;30.90;58.90
1175;DHT22;576;48.418;10.074;2023-06-26T14:36:51;30.90;59.00
1175;DHT22;576;48.418;10.074;2023-06-26T14:39:19;30.90;59.20
1175;DHT22;576;48.418;10.074;2023-06-26T14:41:49;30.90;59.40
1175;DHT22;576;48.418;10.074;2023-06-26T14:44:18;30.90;59.40
1175;DHT22;576;48.418;10.074;2023-06-26T14:46:46;30.90;59.50
1175;DHT22;576;48.418;10.074;2023-06-26T14:49:15;30.90;59.60
1175;DHT22;576;48.418;10.074;2023-06-26T14:51:43;30.80;59.60
1175;DHT22;576;48.418;10.074;2023-06-26T14:54:11;30.80;59.80
1175;DHT22;576;48.418;10.074;2023-06-26T14:56:39;30.80;59.90
1175;DHT22;576;48.418;10.074;2023-06-26T14:59:09;30.80;60.00
1175;DHT22;576;48.418;10.074;2023-06-26T15:01:38;30.80;60.10
1175;DHT22;576;48.418;10.074;2023-06-26T15:04:06;30.80;60.20
1175;DHT22;576;48.418;10.074;2023-06-26T15:06:35;30.80;60.20
1175;DHT22;576;48.418;10.074;2023-06-26T15:09:04;30.80;60.30
1175;DHT22;576;48.418;10.074;2023-06-26T15:11:33;30.80;60.20
1175;DHT22;576;48.418;10.074;2023-06-26T15:14:01;30.80;60.30
1175;DHT22;576;48.418;10.074;2023-06-26T15:16:31;30.80;60.30
1175;DHT22;576;48.418;10.074;2023-06-26T15:18:59;30.80;60.40
1175;DHT22;576;48.418;10.074;2023-06-26T15:21:27;30.70;60.40
1175;DHT22;576;48.418;10.074;2023-06-26T15:23:56;30.70;60.60
1175;DHT22;576;48.418;10.074;2023-06-26T15:26:24;30.70;60.70
1175;DHT22;576;48.418;10.074;2023-06-26T15:28:52;30.80;60.70
1175;DHT22;576;48.418;10.074;2023-06-26T15:31:21;30.80;60.80
1175;DHT22;576;48.418;10.074;2023-06-26T15:33:51;30.80;60.80
1175;DHT22;576;48.418;10.074;2023-06-26T15:36:19;30.90;60.80
1175;DHT22;576;48.418;10.074;2023-06-26T15:38:47;30.90;60.80
1175;DHT22;576;48.418;10.074;2023-06-26T15:41:15;30.90;60.80
1175;DHT22;576;48.418;10.074;2023-06-26T15:43:43;31.00;60.80
1175;DHT22;576;48.418;10.074;2023-06-26T15:46:15;31.00;60.80
1175;DHT22;576;48.418;10.074;2023-06-26T15:48:44;31.10;60.60
1175;DHT22;576;48.418;10.074;2023-06-26T15:51:14;31.10;60.60
1175;DHT22;576;48.418;10.074;2023-06-26T15:53:45;31.10;60.50
1175;DHT22;576;48.418;10.074;2023-06-26T15:56:13;31.20;60.50
1175;DHT22;576;48.418;10.074;2023-06-26T15:58:44;31.20;60.50
1175;DHT22;576;48.418;10.074;2023-06-26T16:01:13;31.20;60.50
1175;DHT22;576;48.418;10.074;2023-06-26T16:03:42;31.30;60.50
1175;DHT22;576;48.418;10.074;2023-06-26T16:06:10;31.30;60.50
1175;DHT22;576;48.418;10.074;2023-06-26T16:08:40;31.30;60.50
1175;DHT22;576;48.418;10.074;2023-06-26T16:11:08;31.30;60.40
1175;DHT22;576;48.418;10.074;2023-06-26T16:13:36;31.40;60.20
1175;DHT22;576;48.418;10.074;2023-06-26T16:16:05;31.40;59.50
1175;DHT22;576;48.418;10.074;2023-06-26T16:18:34;31.40;58.70